createdAt,value
2018-06-18T00:02:13.168Z,81.56
2018-06-18T00:04:42.089Z,81.65
2018-06-18T00:07:11.025Z,81.99
2018-06-18T00:09:39.902Z,82.16
2018-06-18T00:12:09.459Z,82.28
2018-06-18T00:14:38.583Z,82.24
2018-06-18T00:17:08.128Z,82.06
2018-06-18T00:19:37.376Z,82.26
2018-06-18T00:22:08.575Z,81.70
2018-06-18T00:24:37.811Z,82.13
2018-06-18T00:27:07.276Z,82.09
2018-06-18T00:29:36.143Z,82.08
2018-06-18T00:32:05.616Z,81.77
2018-06-18T00:34:35.144Z,81.35
2018-06-18T00:37:04.096Z,81.82
2018-06-18T00:39:33.715Z,81.29
2018-06-18T00:42:02.989Z,82.06
2018-06-18T00:44:32.237Z,81.65
2018-06-18T00:47:01.630Z,81.40
2018-06-18T00:49:30.936Z,81.49
2018-06-18T00:52:00.199Z,82.25
2018-06-18T00:54:30.000Z,82.06
2018-06-18T00:56:59.248Z,82.18
2018-06-18T00:59:28.524Z,82.28
2018-06-18T01:01:57.807Z,82.41
2018-06-18T01:04:27.210Z,82.82
2018-06-18T01:06:56.259Z,82.87
2018-06-18T01:09:25.763Z,82.98
2018-06-18T01:11:54.936Z,83.16
2018-06-18T01:14:24.764Z,83.37
2018-06-18T01:16:54.469Z,83.11
2018-06-18T01:19:24.089Z,83.53
2018-06-18T01:21:53.040Z,83.50
2018-06-18T01:24:38.625Z,83.51
2018-06-18T01:27:07.914Z,83.41
2018-06-18T01:29:36.865Z,83.36
2018-06-18T01:32:06.129Z,83.73
2018-06-18T01:34:35.021Z,83.55
2018-06-18T01:37:04.818Z,83.61
2018-06-18T01:39:33.827Z,84.04
2018-06-18T01:42:02.763Z,84.06
2018-06-18T01:44:32.187Z,83.55
2018-06-18T01:47:01.124Z,84.06
2018-06-18T01:49:30.754Z,83.91
2018-06-18T01:52:00.046Z,84.51
2018-06-18T01:54:29.454Z,84.66
2018-06-18T01:56:59.104Z,84.48
2018-06-18T01:59:27.973Z,84.58
2018-06-18T02:01:58.026Z,84.61
2018-06-18T02:04:27.947Z,84.68
2018-06-18T02:06:57.511Z,85.16
2018-06-18T02:09:26.598Z,84.88
2018-06-18T02:11:55.875Z,84.75
2018-06-18T02:14:24.810Z,84.70
2018-06-18T02:16:54.841Z,85.29
2018-06-18T02:19:23.814Z,85.22
2018-06-18T02:21:52.768Z,85.50
2018-06-18T02:24:22.100Z,85.79
2018-06-18T02:26:56.590Z,86.28
2018-06-18T02:29:30.925Z,86.18
2018-06-18T02:32:08.325Z,86.36
2018-06-18T02:34:42.423Z,86.18
2018-06-18T02:37:16.859Z,86.88
2018-06-18T02:40:52.451Z,86.75
2018-06-18T02:43:22.312Z,87.25
2018-06-18T02:45:51.617Z,87.47
2018-06-18T02:48:20.517Z,87.72
2018-06-18T02:50:49.444Z,88.14
2018-06-18T02:53:19.057Z,88.25
2018-06-18T02:55:49.477Z,88.72
2018-06-18T02:58:19.928Z,88.42
2018-06-18T03:00:49.598Z,88.54
2018-06-18T03:03:19.050Z,88.53
2018-06-18T03:05:48.363Z,88.30
2018-06-18T03:08:18.711Z,88.49
2018-06-18T03:10:47.673Z,88.60
2018-06-18T03:13:16.785Z,89.05
2018-06-18T03:15:46.179Z,88.68
2018-06-18T03:18:20.197Z,88.56
2018-06-18T03:20:54.320Z,88.74
2018-06-18T03:23:28.700Z,88.88
2018-06-18T03:26:02.742Z,88.99
2018-06-18T03:28:37.401Z,89.24
2018-06-18T03:31:06.799Z,88.83
2018-06-18T03:33:36.714Z,89.21
2018-06-18T03:36:07.228Z,89.25
2018-06-18T03:38:36.238Z,89.45
2018-06-18T03:41:05.478Z,89.52
2018-06-18T03:43:37.097Z,89.64
2018-06-18T03:46:06.929Z,89.67
2018-06-18T03:48:35.833Z,89.33
2018-06-18T03:51:04.783Z,89.32
2018-06-18T03:53:34.007Z,89.30
2018-06-18T03:56:03.501Z,89.10
2018-06-18T03:58:32.881Z,89.28
2018-06-18T04:02:15.651Z,89.42
2018-06-18T04:04:53.952Z,89.32
2018-06-18T04:07:29.176Z,89.20
2018-06-18T04:10:04.093Z,89.04
2018-06-18T04:12:33.647Z,89.12
2018-06-18T04:15:03.005Z,89.54
2018-06-18T04:17:32.199Z,89.38
2018-06-18T04:20:01.202Z,89.68
2018-06-18T04:22:35.996Z,89.37
2018-06-18T04:25:05.000Z,89.45
2018-06-18T04:27:34.441Z,89.46
2018-06-18T04:30:03.824Z,89.56
2018-06-18T04:32:33.120Z,89.33
2018-06-18T04:35:05.529Z,89.81
2018-06-18T04:37:35.666Z,89.97
2018-06-18T04:40:05.536Z,89.97
2018-06-18T04:42:39.939Z,90.18
2018-06-18T04:45:14.274Z,91.38
2018-06-18T04:47:48.988Z,91.76
2018-06-18T04:50:23.612Z,91.87
2018-06-18T04:52:53.145Z,92.21
2018-06-18T04:55:22.789Z,91.89
2018-06-18T04:57:52.168Z,92.59
2018-06-18T05:00:28.512Z,92.81
2018-06-18T05:02:57.515Z,93.29
2018-06-18T05:05:26.605Z,93.68
2018-06-18T05:09:06.217Z,93.75
2018-06-18T05:11:35.941Z,93.58
2018-06-18T05:14:05.265Z,93.63
2018-06-18T05:16:34.384Z,93.51
2018-06-18T05:19:03.864Z,94.46
2018-06-18T05:21:32.786Z,94.67
2018-06-18T05:24:01.819Z,95.06
2018-06-18T05:26:31.437Z,95.14
2018-06-18T05:29:00.815Z,95.40
2018-06-18T05:31:30.866Z,95.07
2018-06-18T05:33:59.926Z,95.24
2018-06-18T05:36:29.643Z,95.21
2018-06-18T05:38:58.637Z,94.79
2018-06-18T05:41:27.977Z,94.62
2018-06-18T05:43:57.688Z,94.98
2018-06-18T05:46:27.208Z,94.70
2018-06-18T05:48:56.471Z,95.10
2018-06-18T05:51:25.993Z,94.65
2018-06-18T05:53:55.661Z,95.03
2018-06-18T05:56:25.913Z,95.05
2018-06-18T05:58:54.922Z,95.14
2018-06-18T06:01:23.949Z,95.03
2018-06-18T06:03:53.730Z,95.31
2018-06-18T06:06:23.309Z,94.97
2018-06-18T06:08:52.540Z,94.92
2018-06-18T06:11:21.896Z,95.36
2018-06-18T06:13:51.209Z,95.27
2018-06-18T06:16:20.427Z,95.52
2018-06-18T06:18:49.582Z,96.08
2018-06-18T06:21:18.455Z,96.02
2018-06-18T06:23:47.801Z,95.65
2018-06-18T06:26:16.629Z,96.27
2018-06-18T06:28:45.560Z,96.26
2018-06-18T06:31:14.523Z,96.39
2018-06-18T06:33:43.361Z,96.32
2018-06-18T06:36:13.255Z,96.71
2018-06-18T06:38:42.985Z,96.44
2018-06-18T06:41:12.755Z,96.94
2018-06-18T06:43:42.071Z,97.26
2018-06-18T06:46:10.913Z,97.71
2018-06-18T06:48:40.113Z,97.56
2018-06-18T06:51:09.831Z,97.63
2018-06-18T06:53:39.340Z,97.35
2018-06-18T06:56:08.642Z,97.80
2018-06-18T06:58:37.775Z,97.72
2018-06-18T07:01:07.310Z,97.83
2018-06-18T07:03:36.522Z,97.39
2018-06-18T07:06:05.866Z,97.24
2018-06-18T07:08:34.885Z,97.46
2018-06-18T07:11:03.862Z,97.25
2018-06-18T07:13:33.090Z,97.15
2018-06-18T07:16:02.406Z,97.17
2018-06-18T07:18:31.360Z,96.49
2018-06-18T07:21:00.601Z,96.81
2018-06-18T07:23:29.722Z,96.45
2018-06-18T07:25:59.266Z,96.92
2018-06-18T07:28:28.245Z,96.76
2018-06-18T07:30:57.997Z,95.79
2018-06-18T07:33:27.235Z,95.46
2018-06-18T07:35:56.622Z,94.75
2018-06-18T07:38:26.296Z,95.00
2018-06-18T07:40:55.428Z,94.24
2018-06-18T07:43:24.335Z,94.59
2018-06-18T07:45:53.702Z,94.78
2018-06-18T07:48:22.824Z,94.16
2018-06-18T07:50:51.680Z,94.36
2018-06-18T07:53:20.844Z,93.40
2018-06-18T07:55:49.992Z,92.85
2018-06-18T07:58:19.505Z,91.74
2018-06-18T08:00:48.419Z,92.03
2018-06-18T08:03:17.620Z,91.20
2018-06-18T08:05:46.594Z,90.97
2018-06-18T08:08:16.299Z,91.22
2018-06-18T08:10:46.077Z,90.98
2018-06-18T08:13:15.593Z,90.58
2018-06-18T08:15:44.570Z,90.45
2018-06-18T08:18:13.586Z,89.60
2018-06-18T08:20:43.429Z,89.68
2018-06-18T08:23:12.843Z,89.43
2018-06-18T08:25:42.245Z,89.03
2018-06-18T08:28:11.259Z,87.67
2018-06-18T08:30:40.531Z,87.26
2018-06-18T08:33:10.122Z,86.95
2018-06-18T08:35:39.334Z,87.55
2018-06-18T08:38:08.457Z,87.39
2018-06-18T08:40:38.002Z,87.70
2018-06-18T08:43:07.336Z,87.49
2018-06-18T08:45:36.794Z,87.16
2018-06-18T08:48:06.293Z,85.84
2018-06-18T08:50:40.411Z,85.58
2018-06-18T08:53:14.362Z,86.51
2018-06-18T08:55:48.970Z,86.01
2018-06-18T08:58:23.520Z,84.51
2018-06-18T09:00:57.833Z,84.96
2018-06-18T09:03:27.201Z,84.49
2018-06-18T09:06:01.767Z,82.90
2018-06-18T09:08:40.315Z,83.21
2018-06-18T09:11:09.638Z,83.40
2018-06-18T09:13:39.069Z,82.74
2018-06-18T09:16:08.724Z,82.52
2018-06-18T09:18:38.268Z,81.53
2018-06-18T09:21:08.043Z,81.94
2018-06-18T09:23:37.126Z,80.90
2018-06-18T09:26:06.413Z,80.43
2018-06-18T09:28:36.032Z,79.93
2018-06-18T09:31:05.356Z,79.77
2018-06-18T09:33:34.914Z,79.39
2018-06-18T09:36:04.538Z,78.58
2018-06-18T09:38:34.246Z,79.56
2018-06-18T09:41:03.456Z,79.64
2018-06-18T09:43:33.027Z,79.04
2018-06-18T09:46:01.975Z,78.67
2018-06-18T09:48:36.623Z,78.78
2018-06-18T09:51:11.115Z,77.15
2018-06-18T09:53:45.068Z,76.80
2018-06-18T09:56:19.324Z,77.61
2018-06-18T09:58:53.436Z,77.41
2018-06-18T10:01:27.725Z,77.63
2018-06-18T10:03:56.987Z,77.20
2018-06-18T10:06:26.967Z,77.04
2018-06-18T10:09:01.046Z,77.09
2018-06-18T10:11:30.491Z,76.01
2018-06-18T10:13:59.590Z,75.67
2018-06-18T10:16:28.621Z,74.72
2018-06-18T10:18:57.653Z,75.91
2018-06-18T10:21:26.726Z,75.46
2018-06-18T10:23:56.025Z,74.75
2018-06-18T10:26:25.781Z,75.35
2018-06-18T10:28:54.907Z,74.49
2018-06-18T10:31:24.464Z,73.80
2018-06-18T10:33:58.383Z,73.77
2018-06-18T10:36:32.860Z,73.70
2018-06-18T10:39:06.993Z,73.38
2018-06-18T10:41:40.942Z,73.93
2018-06-18T10:44:09.924Z,73.78
2018-06-18T10:46:39.040Z,74.67
2018-06-18T10:49:08.371Z,74.55
2018-06-18T10:51:38.097Z,73.13
2018-06-18T10:54:07.208Z,73.56
2018-06-18T10:56:36.010Z,74.15
2018-06-18T10:59:05.117Z,74.57
2018-06-18T11:01:34.529Z,75.39
2018-06-18T11:04:04.380Z,75.32
2018-06-18T11:06:33.857Z,75.54
2018-06-18T11:09:02.786Z,73.97
2018-06-18T11:11:31.800Z,74.34
2018-06-18T11:14:00.625Z,73.33
2018-06-18T11:16:29.908Z,73.14
2018-06-18T11:19:04.090Z,73.47
2018-06-18T11:21:38.531Z,74.67
2018-06-18T11:24:12.746Z,77.45
2018-06-18T11:26:46.575Z,76.11
2018-06-18T11:29:15.705Z,74.66
2018-06-18T11:31:44.571Z,75.47
2018-06-18T11:34:13.812Z,74.72
2018-06-18T11:36:42.653Z,75.09
2018-06-18T11:39:11.808Z,72.58
2018-06-18T11:41:40.665Z,73.25
2018-06-18T11:44:10.181Z,74.05
2018-06-18T11:46:39.841Z,73.82
2018-06-18T11:49:08.588Z,74.51
2018-06-18T11:51:37.791Z,74.92
2018-06-18T11:54:06.878Z,75.54
2018-06-18T11:56:36.044Z,76.10
2018-06-18T11:59:10.374Z,76.07
2018-06-18T12:01:44.215Z,76.57
2018-06-18T12:04:18.645Z,78.06
2018-06-18T12:06:52.612Z,80.00
2018-06-18T12:09:28.524Z,79.87
2018-06-18T12:11:57.768Z,79.05
2018-06-18T12:14:27.221Z,78.56
2018-06-18T12:16:56.527Z,77.84
2018-06-18T12:19:25.944Z,76.26
2018-06-18T12:21:55.361Z,76.11
2018-06-18T12:24:25.201Z,75.55
2018-06-18T12:26:54.184Z,76.03
2018-06-18T12:29:23.729Z,75.88
2018-06-18T12:31:53.403Z,75.54
2018-06-18T12:34:22.775Z,76.71
2018-06-18T12:36:52.216Z,75.93
2018-06-18T12:39:21.614Z,75.65
2018-06-18T12:41:57.922Z,75.43
2018-06-18T12:44:27.035Z,76.13
2018-06-18T12:47:01.856Z,76.00
2018-06-18T12:49:36.509Z,75.95
2018-06-18T12:52:11.063Z,74.33
2018-06-18T12:54:45.372Z,73.82
2018-06-18T12:57:14.780Z,74.25
2018-06-18T12:59:43.986Z,73.96
2018-06-18T13:02:22.084Z,74.29
2018-06-18T13:04:56.693Z,73.68
2018-06-18T13:07:26.624Z,74.45
2018-06-18T13:09:57.305Z,73.65
2018-06-18T13:12:26.723Z,73.99
2018-06-18T13:14:55.858Z,71.84
2018-06-18T13:17:25.190Z,72.44
2018-06-18T13:19:54.355Z,72.54
2018-06-18T13:22:23.660Z,72.63
2018-06-18T13:24:53.559Z,73.62
2018-06-18T13:27:26.524Z,72.72
2018-06-18T13:29:55.703Z,72.92
2018-06-18T13:32:25.128Z,73.27
2018-06-18T13:34:54.549Z,74.83
2018-06-18T13:37:28.579Z,75.17
2018-06-18T13:42:05.035Z,76.35
2018-06-18T13:44:39.170Z,79.30
2018-06-18T13:47:13.310Z,78.82
2018-06-18T13:49:48.118Z,78.38
2018-06-18T13:52:17.229Z,78.75
2018-06-18T13:54:46.628Z,78.96
2018-06-18T13:57:15.567Z,78.49
2018-06-18T13:59:44.928Z,77.80
2018-06-18T14:02:13.946Z,76.42
2018-06-18T14:04:43.304Z,76.06
2018-06-18T14:07:12.900Z,75.10
2018-06-18T14:09:41.930Z,75.89
2018-06-18T14:12:11.404Z,75.74
2018-06-18T14:14:40.663Z,76.47
2018-06-18T14:17:09.849Z,75.73
2018-06-18T14:19:43.791Z,75.84
2018-06-18T14:22:12.814Z,75.72
2018-06-18T14:24:42.082Z,76.84
2018-06-18T14:27:11.450Z,76.72
2018-06-18T14:29:45.903Z,76.48
2018-06-18T14:32:20.555Z,77.56
2018-06-18T14:34:54.692Z,77.96
2018-06-18T14:37:29.587Z,77.60
2018-06-18T14:40:03.983Z,76.43
2018-06-18T14:42:33.050Z,74.11
2018-06-18T14:45:02.033Z,73.84
2018-06-18T14:47:31.219Z,74.72
2018-06-18T14:50:00.558Z,74.24
2018-06-18T14:52:29.697Z,74.89
2018-06-18T14:54:59.136Z,75.80
2018-06-18T14:57:28.315Z,75.92
2018-06-18T15:00:04.207Z,76.31
2018-06-18T15:02:33.098Z,77.90
2018-06-18T15:05:01.964Z,78.38
2018-06-18T15:07:31.533Z,77.86
2018-06-18T15:10:00.354Z,78.72
2018-06-18T15:12:32.199Z,78.59
2018-06-18T15:15:06.248Z,78.66
2018-06-18T15:17:35.785Z,78.18
2018-06-18T15:20:05.342Z,78.68
2018-06-18T15:22:34.473Z,78.30
2018-06-18T15:25:06.923Z,77.86
2018-06-18T15:27:36.071Z,78.14
2018-06-18T15:30:05.276Z,78.47
2018-06-18T15:32:34.473Z,78.58
2018-06-18T15:35:11.649Z,78.52
2018-06-18T15:37:41.137Z,78.96
2018-06-18T15:40:10.477Z,78.14
2018-06-18T15:42:39.432Z,77.96
2018-06-18T15:45:15.622Z,77.93
2018-06-18T15:47:45.370Z,76.98
2018-06-18T15:50:14.373Z,75.83
2018-06-18T15:52:44.170Z,76.32
2018-06-18T15:55:13.760Z,75.71
2018-06-18T15:57:43.840Z,75.99
2018-06-18T16:00:12.780Z,75.06
2018-06-18T16:02:41.794Z,75.66
2018-06-18T16:05:11.042Z,74.67
2018-06-18T16:07:40.310Z,74.83
2018-06-18T16:10:09.332Z,75.19
2018-06-18T16:12:38.580Z,74.95
2018-06-18T16:15:07.475Z,73.72
2018-06-18T16:17:36.946Z,74.67
2018-06-18T16:20:06.481Z,75.33
2018-06-18T16:22:35.563Z,75.58
2018-06-18T16:25:04.969Z,76.25
2018-06-18T16:27:34.023Z,75.90
2018-06-18T16:30:03.123Z,76.18
2018-06-18T16:32:32.398Z,76.10
2018-06-18T16:35:01.496Z,77.63
2018-06-18T16:37:31.192Z,77.52
2018-06-18T16:40:00.031Z,77.88
2018-06-18T16:42:29.989Z,78.24
2018-06-18T16:44:59.835Z,78.76
2018-06-18T16:47:28.849Z,78.78
2018-06-18T16:49:58.333Z,79.01
2018-06-18T16:52:27.348Z,78.05
2018-06-18T16:54:56.312Z,78.26
2018-06-18T16:57:25.683Z,79.00
2018-06-18T16:59:55.087Z,78.98
2018-06-18T17:02:24.701Z,79.42
2018-06-18T17:04:53.604Z,79.23
2018-06-18T17:07:23.553Z,78.93
2018-06-18T17:09:52.819Z,78.11
2018-06-18T17:12:22.469Z,78.39
2018-06-18T17:14:52.714Z,78.89
2018-06-18T17:17:21.786Z,78.89
2018-06-18T17:19:51.083Z,79.04
2018-06-18T17:22:20.049Z,78.74
2018-06-18T17:24:50.069Z,78.81
2018-06-18T17:27:19.505Z,78.32
2018-06-18T17:30:01.902Z,78.06
2018-06-18T17:32:31.386Z,78.25
2018-06-18T17:35:01.198Z,78.17
2018-06-18T17:37:31.101Z,77.20
2018-06-18T17:40:00.524Z,76.33
2018-06-18T17:42:29.627Z,76.91
2018-06-18T17:44:58.531Z,76.37
2018-06-18T17:47:28.120Z,75.69
2018-06-18T17:49:57.201Z,76.49
2018-06-18T17:52:26.193Z,76.23
2018-06-18T17:54:56.296Z,75.89
2018-06-18T17:57:25.326Z,76.36
2018-06-18T17:59:54.649Z,77.00
2018-06-18T18:02:23.487Z,77.09
2018-06-18T18:04:56.977Z,76.40
2018-06-18T18:07:28.349Z,76.64
2018-06-18T18:09:57.302Z,76.58
2018-06-18T18:12:26.636Z,76.71
2018-06-18T18:14:55.952Z,76.91
2018-06-18T18:17:25.226Z,76.17
2018-06-18T18:19:54.147Z,76.12
2018-06-18T18:22:23.609Z,76.11
2018-06-18T18:24:52.504Z,75.91
2018-06-18T18:27:22.513Z,75.87
2018-06-18T18:29:52.137Z,76.29
2018-06-18T18:32:21.980Z,76.60
2018-06-18T18:34:51.772Z,76.33
2018-06-18T18:37:20.984Z,76.31
2018-06-18T18:39:50.453Z,76.78
2018-06-18T18:42:20.058Z,77.13
2018-06-18T18:44:49.210Z,76.82
2018-06-18T18:47:18.396Z,77.71
2018-06-18T18:49:47.266Z,77.80
2018-06-18T18:52:16.216Z,77.62
2018-06-18T18:56:01.619Z,77.58
2018-06-18T18:58:54.552Z,77.16
2018-06-18T19:01:24.169Z,77.65
2018-06-18T19:03:55.511Z,78.12
2018-06-18T19:06:24.536Z,77.98
2018-06-18T19:08:54.120Z,77.82
2018-06-18T19:11:23.294Z,77.64
2018-06-18T19:13:52.256Z,77.18
2018-06-18T19:16:21.803Z,76.95
2018-06-18T19:18:54.037Z,77.39
2018-06-18T19:21:23.141Z,77.18
2018-06-18T19:23:52.008Z,77.23
2018-06-18T19:26:21.246Z,77.72
2018-06-18T19:28:50.933Z,78.04
2018-06-18T19:31:22.557Z,77.90
2018-06-18T19:33:57.676Z,77.84
2018-06-18T19:36:27.185Z,77.78
2018-06-18T19:38:56.164Z,78.20
2018-06-18T19:41:25.482Z,77.66
2018-06-18T19:43:55.131Z,77.66
2018-06-18T19:46:30.596Z,77.50
2018-06-18T19:49:07.221Z,77.25
2018-06-18T19:51:36.638Z,77.37
2018-06-18T19:54:08.630Z,77.32
2018-06-18T19:56:37.978Z,77.01
2018-06-18T19:59:07.518Z,77.27
2018-06-18T20:01:36.648Z,77.47
2018-06-18T20:04:05.593Z,77.49
2018-06-18T20:06:35.583Z,78.07
2018-06-18T20:09:06.927Z,77.99
2018-06-18T20:11:36.481Z,78.32
2018-06-18T20:14:05.560Z,78.51
2018-06-18T20:16:35.106Z,79.00
2018-06-18T20:19:04.677Z,79.07
2018-06-18T20:21:33.685Z,78.84
2018-06-18T20:24:02.740Z,79.45
2018-06-18T20:26:31.803Z,78.97
2018-06-18T20:29:00.802Z,79.48
2018-06-18T20:31:29.906Z,79.60
2018-06-18T20:33:59.239Z,79.02
2018-06-18T20:36:28.407Z,79.31
2018-06-18T20:38:57.642Z,79.72
2018-06-18T20:41:27.201Z,79.57
2018-06-18T20:44:09.654Z,79.45
2018-06-18T20:46:39.309Z,79.83
2018-06-18T20:49:10.697Z,79.48
2018-06-18T20:51:39.790Z,79.66
2018-06-18T20:54:09.249Z,80.06
2018-06-18T20:56:38.477Z,79.67
2018-06-18T20:59:09.048Z,79.92
2018-06-18T21:01:38.374Z,80.23
2018-06-18T21:04:08.397Z,80.15
2018-06-18T21:06:37.734Z,79.99
2018-06-18T21:09:10.879Z,80.39
2018-06-18T21:11:40.578Z,80.35
2018-06-18T21:14:10.881Z,80.70
2018-06-18T21:16:42.796Z,80.64
2018-06-18T21:19:11.803Z,80.93
2018-06-18T21:21:41.216Z,81.19
2018-06-18T21:24:10.408Z,81.66
2018-06-18T21:26:39.447Z,81.85
2018-06-18T21:29:09.000Z,81.57
2018-06-18T21:31:38.255Z,82.32
2018-06-18T21:34:07.075Z,82.32
2018-06-18T21:36:36.766Z,82.36
2018-06-18T21:39:07.888Z,82.37
2018-06-18T21:41:37.506Z,82.84
2018-06-18T21:44:08.929Z,82.90
2018-06-18T21:46:38.362Z,82.93
2018-06-18T21:49:07.535Z,83.23
2018-06-18T21:51:36.970Z,83.15
2018-06-18T21:54:06.545Z,83.20
2018-06-18T21:56:35.914Z,83.30
2018-06-18T21:59:04.912Z,82.79
2018-06-18T22:01:44.858Z,83.51
2018-06-18T22:04:15.302Z,82.96
2018-06-18T22:06:45.232Z,83.62
2018-06-18T22:09:18.036Z,83.61
2018-06-18T22:11:52.117Z,83.49
2018-06-18T22:14:21.915Z,83.52
2018-06-18T22:16:51.167Z,83.98
2018-06-18T22:19:20.271Z,84.29
2018-06-18T22:21:49.801Z,83.90
2018-06-18T22:24:18.901Z,83.89
2018-06-18T22:26:48.132Z,84.48
2018-06-18T22:29:17.850Z,84.35
2018-06-18T22:31:47.256Z,84.45
2018-06-18T22:34:16.790Z,84.86
2018-06-18T22:36:45.692Z,85.38
2018-06-18T22:39:14.768Z,85.26
2018-06-18T22:41:44.295Z,85.13
2018-06-18T22:44:13.307Z,85.17
2018-06-18T22:46:42.451Z,85.66
2018-06-18T22:49:11.696Z,86.01
2018-06-18T22:51:41.795Z,86.08
2018-06-18T22:54:11.451Z,86.33
2018-06-18T22:56:40.810Z,86.37
2018-06-18T22:59:10.504Z,86.64
2018-06-18T23:01:40.650Z,86.86
2018-06-18T23:04:10.124Z,87.11
2018-06-18T23:06:39.403Z,87.26
2018-06-18T23:09:10.866Z,87.24
2018-06-18T23:11:40.472Z,87.57
2018-06-18T23:14:13.215Z,87.63
2018-06-18T23:16:42.893Z,87.27
2018-06-18T23:19:12.816Z,87.99
2018-06-18T23:21:42.585Z,87.88
2018-06-18T23:24:12.516Z,87.94
2018-06-18T23:26:42.916Z,88.03
2018-06-18T23:29:14.242Z,87.73
2018-06-18T23:31:44.333Z,88.23
2018-06-18T23:34:13.852Z,87.98
2018-06-18T23:36:42.757Z,87.91
2018-06-18T23:39:12.599Z,87.87
2018-06-18T23:41:46.243Z,87.94
2018-06-18T23:44:15.349Z,88.34
2018-06-18T23:46:44.646Z,88.37
2018-06-18T23:49:17.824Z,87.96
2018-06-18T23:51:46.933Z,87.82
2018-06-18T23:54:16.850Z,87.93
2018-06-18T23:56:46.292Z,87.57
2018-06-18T23:59:15.287Z,87.74
